sensor_id;sensor_type;location;lat;lon;timestamp;P1;durP1;ratioP1;P2;durP2;ratioP2
64467;SDS011;50853;46.836;16.820;2022-11-20T05:38:49;15.85;;;8.90;;
64467;SDS011;50853;46.836;16.820;2022-11-20T05:41:16;13.52;;;7.65;;
64467;SDS011;50853;46.836;16.820;2022-11-20T05:43:44;13.25;;;8.38;;
64467;SDS011;50853;46.836;16.820;2022-11-20T05:46:11;10.70;;;7.63;;
64467;SDS011;50853;46.836;16.820;2022-11-20T05:48:39;21.15;;;8.45;;
64467;SDS011;50853;46.836;16.820;2022-11-20T08:08:25;27.05;;;12.13;;
64467;SDS011;50853;46.836;16.820;2022-11-20T08:10:51;14.90;;;10.45;;
64467;SDS011;50853;46.836;16.820;2022-11-20T08:13:17;17.40;;;10.98;;
64467;SDS011;50853;46.836;16.820;2022-11-20T08:16:02;21.63;;;9.48;;
64467;SDS011;50853;46.836;16.820;2022-11-20T08:18:27;22.48;;;9.50;;
64467;SDS011;50853;46.836;16.820;2022-11-20T08:20:53;16.13;;;9.55;;
64467;SDS011;50853;46.836;16.820;2022-11-20T08:23:19;20.00;;;9.07;;
64467;SDS011;50853;46.836;16.820;2022-11-20T08:25:48;15.70;;;8.77;;
64467;SDS011;50853;46.836;16.820;2022-11-20T08:28:14;14.65;;;9.18;;
64467;SDS011;50853;46.836;16.820;2022-11-20T08:30:40;12.73;;;8.35;;
64467;SDS011;50853;46.836;16.820;2022-11-20T08:33:07;17.80;;;9.80;;
64467;SDS011;50853;46.836;16.820;2022-11-20T08:35:36;13.05;;;9.13;;
64467;SDS011;50853;46.836;16.820;2022-11-20T08:38:03;15.15;;;9.63;;
64467;SDS011;50853;46.836;16.820;2022-11-20T08:40:30;12.27;;;8.50;;
64467;SDS011;50853;46.836;16.820;2022-11-20T08:42:57;20.00;;;9.07;;
64467;SDS011;50853;46.836;16.820;2022-11-20T08:45:23;13.03;;;8.83;;
64467;SDS011;50853;46.836;16.820;2022-11-20T08:47:48;13.88;;;8.00;;
64467;SDS011;50853;46.836;16.820;2022-11-20T08:50:15;13.60;;;8.97;;
64467;SDS011;50853;46.836;16.820;2022-11-20T08:52:41;19.85;;;13.55;;
64467;SDS011;50853;46.836;16.820;2022-11-20T08:55:07;18.10;;;11.13;;
64467;SDS011;50853;46.836;16.820;2022-11-20T08:57:34;15.48;;;9.45;;
64467;SDS011;50853;46.836;16.820;2022-11-20T09:00:01;17.13;;;9.20;;
64467;SDS011;50853;46.836;16.820;2022-11-20T09:02:28;15.23;;;9.43;;
64467;SDS011;50853;46.836;16.820;2022-11-20T09:04:53;12.98;;;9.15;;
64467;SDS011;50853;46.836;16.820;2022-11-20T09:07:19;22.73;;;9.35;;
64467;SDS011;50853;46.836;16.820;2022-11-20T09:09:45;13.38;;;8.70;;
64467;SDS011;50853;46.836;16.820;2022-11-20T09:12:11;15.70;;;9.27;;
64467;SDS011;50853;46.836;16.820;2022-11-20T09:14:37;13.63;;;8.02;;
64467;SDS011;50853;46.836;16.820;2022-11-20T09:17:02;13.00;;;9.07;;
64467;SDS011;50853;46.836;16.820;2022-11-20T09:19:28;12.38;;;9.18;;
64467;SDS011;50853;46.836;16.820;2022-11-20T09:21:54;15.68;;;8.50;;
64467;SDS011;50853;46.836;16.820;2022-11-20T09:24:20;13.25;;;8.15;;
64467;SDS011;50853;46.836;16.820;2022-11-20T09:26:46;15.45;;;8.82;;
64467;SDS011;50853;46.836;16.820;2022-11-20T09:29:12;9.77;;;7.83;;
64467;SDS011;50853;46.836;16.820;2022-11-20T09:31:38;16.75;;;8.80;;
64467;SDS011;50853;46.836;16.820;2022-11-20T09:34:04;19.13;;;10.73;;
64467;SDS011;50853;46.836;16.820;2022-11-20T09:36:29;18.70;;;11.07;;
64467;SDS011;50853;46.836;16.820;2022-11-20T09:38:55;22.90;;;12.83;;
64467;SDS011;50853;46.836;16.820;2022-11-20T09:41:56;24.73;;;14.55;;
64467;SDS011;50853;46.836;16.820;2022-11-20T10:51:18;17.58;;;11.07;;
64467;SDS011;50853;46.836;16.820;2022-11-20T10:56:56;21.65;;;10.98;;
64467;SDS011;50853;46.836;16.820;2022-11-20T11:08:01;16.45;;;10.45;;
64467;SDS011;50853;46.836;16.820;2022-11-20T11:12:59;17.02;;;10.65;;
64467;SDS011;50853;46.836;16.820;2022-11-20T11:18:08;14.15;;;9.93;;
64467;SDS011;50853;46.836;16.820;2022-11-20T11:20:50;18.23;;;10.27;;
64467;SDS011;50853;46.836;16.820;2022-11-20T11:23:28;23.02;;;10.32;;
64467;SDS011;50853;46.836;16.820;2022-11-20T11:25:58;19.38;;;11.18;;
64467;SDS011;50853;46.836;16.820;2022-11-20T11:28:25;15.70;;;10.63;;
64467;SDS011;50853;46.836;16.820;2022-11-20T11:30:53;13.68;;;9.73;;
64467;SDS011;50853;46.836;16.820;2022-11-20T11:33:26;18.23;;;10.45;;
64467;SDS011;50853;46.836;16.820;2022-11-20T11:35:54;14.32;;;9.55;;
64467;SDS011;50853;46.836;16.820;2022-11-20T11:40:59;15.65;;;9.75;;
64467;SDS011;50853;46.836;16.820;2022-11-20T11:43:28;18.27;;;10.40;;
64467;SDS011;50853;46.836;16.820;2022-11-20T11:46:27;14.48;;;9.88;;
64467;SDS011;50853;46.836;16.820;2022-11-20T11:48:57;14.82;;;9.80;;
64467;SDS011;50853;46.836;16.820;2022-11-20T11:54:25;14.20;;;9.77;;
64467;SDS011;50853;46.836;16.820;2022-11-20T11:56:58;21.40;;;10.05;;
64467;SDS011;50853;46.836;16.820;2022-11-20T12:08:05;17.33;;;9.73;;
64467;SDS011;50853;46.836;16.820;2022-11-20T12:16:20;27.70;;;10.57;;
64467;SDS011;50853;46.836;16.820;2022-11-20T12:18:50;28.37;;;11.13;;
64467;SDS011;50853;46.836;16.820;2022-11-20T12:30:00;43.97;;;11.82;;
64467;SDS011;50853;46.836;16.820;2022-11-20T12:39:51;43.72;;;10.60;;
64467;SDS011;50853;46.836;16.820;2022-11-20T12:45:22;48.33;;;12.88;;
64467;SDS011;50853;46.836;16.820;2022-11-20T12:53:45;32.63;;;11.43;;
64467;SDS011;50853;46.836;16.820;2022-11-20T13:02:26;26.73;;;11.88;;
64467;SDS011;50853;46.836;16.820;2022-11-20T13:07:46;28.20;;;10.25;;
64467;SDS011;50853;46.836;16.820;2022-11-20T13:10:21;31.67;;;11.02;;
64467;SDS011;50853;46.836;16.820;2022-11-20T13:12:50;25.55;;;10.18;;
64467;SDS011;50853;46.836;16.820;2022-11-20T13:18:34;20.50;;;11.55;;
64467;SDS011;50853;46.836;16.820;2022-11-20T13:21:15;22.40;;;12.13;;
64467;SDS011;50853;46.836;16.820;2022-11-20T13:23:46;22.08;;;11.70;;
64467;SDS011;50853;46.836;16.820;2022-11-20T13:26:22;17.10;;;12.98;;
64467;SDS011;50853;46.836;16.820;2022-11-20T13:28:59;28.73;;;13.27;;
64467;SDS011;50853;46.836;16.820;2022-11-20T13:31:35;19.95;;;12.70;;
64467;SDS011;50853;46.836;16.820;2022-11-20T13:34:03;22.65;;;13.23;;
64467;SDS011;50853;46.836;16.820;2022-11-20T13:36:31;21.17;;;13.23;;
64467;SDS011;50853;46.836;16.820;2022-11-20T13:38:57;21.60;;;12.57;;
64467;SDS011;50853;46.836;16.820;2022-11-20T13:41:25;18.48;;;12.50;;
64467;SDS011;50853;46.836;16.820;2022-11-20T13:43:56;16.40;;;10.85;;
64467;SDS011;50853;46.836;16.820;2022-11-20T13:46:34;14.57;;;11.23;;
64467;SDS011;50853;46.836;16.820;2022-11-20T13:49:10;15.23;;;10.40;;
64467;SDS011;50853;46.836;16.820;2022-11-20T13:54:34;15.10;;;10.70;;
64467;SDS011;50853;46.836;16.820;2022-11-20T14:02:21;17.35;;;10.13;;
64467;SDS011;50853;46.836;16.820;2022-11-20T14:04:51;21.38;;;10.88;;
64467;SDS011;50853;46.836;16.820;2022-11-20T14:07:19;18.13;;;10.45;;
64467;SDS011;50853;46.836;16.820;2022-11-20T14:09:49;21.55;;;10.75;;
64467;SDS011;50853;46.836;16.820;2022-11-20T14:12:17;32.42;;;11.43;;
64467;SDS011;50853;46.836;16.820;2022-11-20T14:14:49;22.73;;;10.02;;
64467;SDS011;50853;46.836;16.820;2022-11-20T14:17:20;23.27;;;11.13;;
64467;SDS011;50853;46.836;16.820;2022-11-20T14:19:55;21.88;;;10.30;;
64467;SDS011;50853;46.836;16.820;2022-11-20T14:22:26;47.88;;;11.43;;
64467;SDS011;50853;46.836;16.820;2022-11-20T14:27:37;40.08;;;11.18;;
64467;SDS011;50853;46.836;16.820;2022-11-20T14:30:06;17.95;;;11.25;;
64467;SDS011;50853;46.836;16.820;2022-11-20T14:32:46;23.90;;;11.93;;
64467;SDS011;50853;46.836;16.820;2022-11-20T14:35:26;20.65;;;11.85;;
64467;SDS011;50853;46.836;16.820;2022-11-20T14:37:54;18.58;;;11.10;;
64467;SDS011;50853;46.836;16.820;2022-11-20T14:40:22;18.85;;;11.00;;
64467;SDS011;50853;46.836;16.820;2022-11-20T14:42:52;16.23;;;10.35;;
64467;SDS011;50853;46.836;16.820;2022-11-20T14:45:18;17.65;;;10.27;;
64467;SDS011;50853;46.836;16.820;2022-11-20T14:47:44;16.85;;;9.90;;
64467;SDS011;50853;46.836;16.820;2022-11-20T14:50:32;15.48;;;9.90;;
64467;SDS011;50853;46.836;16.820;2022-11-20T14:52:58;18.25;;;9.55;;
64467;SDS011;50853;46.836;16.820;2022-11-20T14:55:25;17.33;;;9.43;;
64467;SDS011;50853;46.836;16.820;2022-11-20T14:58:22;14.00;;;9.25;;
64467;SDS011;50853;46.836;16.820;2022-11-20T15:00:53;11.90;;;8.25;;
64467;SDS011;50853;46.836;16.820;2022-11-20T15:03:38;13.10;;;7.78;;
64467;SDS011;50853;46.836;16.820;2022-11-20T15:06:10;10.85;;;7.90;;
64467;SDS011;50853;46.836;16.820;2022-11-20T15:08:37;13.40;;;8.27;;
64467;SDS011;50853;46.836;16.820;2022-11-20T15:11:03;15.43;;;10.20;;
64467;SDS011;50853;46.836;16.820;2022-11-20T15:13:41;14.38;;;10.73;;
64467;SDS011;50853;46.836;16.820;2022-11-20T15:16:15;15.98;;;11.10;;
64467;SDS011;50853;46.836;16.820;2022-11-20T15:18:44;15.75;;;10.90;;
64467;SDS011;50853;46.836;16.820;2022-11-20T15:21:14;13.75;;;10.45;;
64467;SDS011;50853;46.836;16.820;2022-11-20T15:23:41;18.63;;;10.30;;
64467;SDS011;50853;46.836;16.820;2022-11-20T15:26:08;14.25;;;10.65;;
64467;SDS011;50853;46.836;16.820;2022-11-20T15:28:36;15.45;;;10.25;;
64467;SDS011;50853;46.836;16.820;2022-11-20T15:31:04;13.63;;;9.68;;
64467;SDS011;50853;46.836;16.820;2022-11-20T15:33:31;15.30;;;9.60;;
64467;SDS011;50853;46.836;16.820;2022-11-20T15:38:23;14.93;;;9.02;;
64467;SDS011;50853;46.836;16.820;2022-11-20T15:40:49;21.70;;;9.27;;
64467;SDS011;50853;46.836;16.820;2022-11-20T15:43:15;12.30;;;8.60;;
64467;SDS011;50853;46.836;16.820;2022-11-20T15:45:42;12.40;;;8.63;;
64467;SDS011;50853;46.836;16.820;2022-11-20T15:48:14;12.52;;;8.68;;
64467;SDS011;50853;46.836;16.820;2022-11-20T15:50:49;12.00;;;8.23;;
64467;SDS011;50853;46.836;16.820;2022-11-20T15:53:24;14.57;;;8.70;;
64467;SDS011;50853;46.836;16.820;2022-11-20T15:55:50;13.77;;;8.02;;
64467;SDS011;50853;46.836;16.820;2022-11-20T15:58:16;10.63;;;7.93;;
64467;SDS011;50853;46.836;16.820;2022-11-20T16:00:42;9.57;;;7.50;;
64467;SDS011;50853;46.836;16.820;2022-11-20T16:05:38;11.65;;;8.15;;
64467;SDS011;50853;46.836;16.820;2022-11-20T16:08:04;11.05;;;7.63;;
64467;SDS011;50853;46.836;16.820;2022-11-20T16:10:30;13.43;;;7.47;;
64467;SDS011;50853;46.836;16.820;2022-11-20T16:12:56;11.93;;;6.90;;
64467;SDS011;50853;46.836;16.820;2022-11-20T16:15:40;34.10;;;8.48;;
64467;SDS011;50853;46.836;16.820;2022-11-20T16:18:12;17.88;;;7.60;;
64467;SDS011;50853;46.836;16.820;2022-11-20T16:20:40;18.23;;;7.47;;
64467;SDS011;50853;46.836;16.820;2022-11-20T16:23:06;17.63;;;7.72;;
64467;SDS011;50853;46.836;16.820;2022-11-20T16:25:32;11.38;;;7.72;;
64467;SDS011;50853;46.836;16.820;2022-11-20T16:27:58;15.88;;;7.47;;
64467;SDS011;50853;46.836;16.820;2022-11-20T16:30:24;10.57;;;7.53;;
64467;SDS011;50853;46.836;16.820;2022-11-20T16:32:50;11.37;;;7.53;;
64467;SDS011;50853;46.836;16.820;2022-11-20T16:35:16;11.38;;;6.85;;
64467;SDS011;50853;46.836;16.820;2022-11-20T16:37:41;13.20;;;6.80;;
64467;SDS011;50853;46.836;16.820;2022-11-20T16:40:08;10.88;;;7.20;;
64467;SDS011;50853;46.836;16.820;2022-11-20T16:42:35;9.00;;;6.70;;
64467;SDS011;50853;46.836;16.820;2022-11-20T16:45:02;15.90;;;8.27;;
64467;SDS011;50853;46.836;16.820;2022-11-20T16:47:32;25.40;;;7.32;;
64467;SDS011;50853;46.836;16.820;2022-11-20T16:49:59;8.55;;;6.70;;
64467;SDS011;50853;46.836;16.820;2022-11-20T16:52:25;12.10;;;7.03;;
64467;SDS011;50853;46.836;16.820;2022-11-20T16:54:51;13.95;;;6.63;;
64467;SDS011;50853;46.836;16.820;2022-11-20T16:57:17;11.35;;;6.45;;
64467;SDS011;50853;46.836;16.820;2022-11-20T16:59:43;9.70;;;7.07;;
64467;SDS011;50853;46.836;16.820;2022-11-20T17:02:09;7.82;;;5.57;;
64467;SDS011;50853;46.836;16.820;2022-11-20T17:04:35;11.63;;;7.03;;
64467;SDS011;50853;46.836;16.820;2022-11-20T17:07:01;12.23;;;6.32;;
64467;SDS011;50853;46.836;16.820;2022-11-20T17:09:28;12.98;;;6.82;;
64467;SDS011;50853;46.836;16.820;2022-11-20T17:11:53;24.10;;;6.70;;
64467;SDS011;50853;46.836;16.820;2022-11-20T17:14:19;11.47;;;6.53;;
64467;SDS011;50853;46.836;16.820;2022-11-20T17:16:45;13.32;;;7.18;;
64467;SDS011;50853;46.836;16.820;2022-11-20T17:19:11;12.18;;;6.53;;
64467;SDS011;50853;46.836;16.820;2022-11-20T17:21:38;9.00;;;7.05;;
64467;SDS011;50853;46.836;16.820;2022-11-20T17:24:08;8.80;;;6.17;;
64467;SDS011;50853;46.836;16.820;2022-11-20T17:26:35;11.82;;;6.70;;
64467;SDS011;50853;46.836;16.820;2022-11-20T17:29:03;9.40;;;6.63;;
64467;SDS011;50853;46.836;16.820;2022-11-20T17:31:32;11.05;;;6.75;;
64467;SDS011;50853;46.836;16.820;2022-11-20T17:33:59;10.25;;;6.75;;
64467;SDS011;50853;46.836;16.820;2022-11-20T17:36:25;10.27;;;6.50;;
64467;SDS011;50853;46.836;16.820;2022-11-20T17:38:52;9.45;;;6.32;;
64467;SDS011;50853;46.836;16.820;2022-11-20T17:41:19;10.75;;;6.95;;
64467;SDS011;50853;46.836;16.820;2022-11-20T17:43:47;10.48;;;6.93;;
64467;SDS011;50853;46.836;16.820;2022-11-20T17:48:40;17.38;;;10.25;;
64467;SDS011;50853;46.836;16.820;2022-11-20T17:51:08;15.88;;;10.07;;
64467;SDS011;50853;46.836;16.820;2022-11-20T17:53:37;17.15;;;10.77;;
64467;SDS011;50853;46.836;16.820;2022-11-20T17:56:05;16.35;;;10.88;;
64467;SDS011;50853;46.836;16.820;2022-11-20T17:58:49;22.98;;;11.13;;
64467;SDS011;50853;46.836;16.820;2022-11-20T18:01:15;21.88;;;11.85;;
64467;SDS011;50853;46.836;16.820;2022-11-20T18:03:41;17.98;;;11.90;;
64467;SDS011;50853;46.836;16.820;2022-11-20T18:06:14;23.60;;;11.77;;
64467;SDS011;50853;46.836;16.820;2022-11-20T18:08:44;18.02;;;11.80;;
64467;SDS011;50853;46.836;16.820;2022-11-20T18:11:11;21.58;;;12.15;;
64467;SDS011;50853;46.836;16.820;2022-11-20T18:16:34;17.45;;;10.68;;
64467;SDS011;50853;46.836;16.820;2022-11-20T18:19:10;17.63;;;11.07;;
64467;SDS011;50853;46.836;16.820;2022-11-20T18:21:37;18.65;;;10.50;;
64467;SDS011;50853;46.836;16.820;2022-11-20T18:24:03;19.48;;;10.65;;
64467;SDS011;50853;46.836;16.820;2022-11-20T18:26:29;19.38;;;10.18;;
64467;SDS011;50853;46.836;16.820;2022-11-20T18:28:55;20.17;;;11.60;;
64467;SDS011;50853;46.836;16.820;2022-11-20T18:31:21;21.48;;;10.48;;
64467;SDS011;50853;46.836;16.820;2022-11-20T18:33:47;14.97;;;9.53;;
64467;SDS011;50853;46.836;16.820;2022-11-20T18:36:14;12.70;;;8.87;;
64467;SDS011;50853;46.836;16.820;2022-11-20T18:38:45;15.77;;;9.75;;
64467;SDS011;50853;46.836;16.820;2022-11-20T18:41:12;15.95;;;9.45;;
64467;SDS011;50853;46.836;16.820;2022-11-20T18:44:19;14.25;;;9.45;;
64467;SDS011;50853;46.836;16.820;2022-11-20T18:47:09;15.93;;;9.07;;
64467;SDS011;50853;46.836;16.820;2022-11-20T18:49:36;14.45;;;8.30;;
64467;SDS011;50853;46.836;16.820;2022-11-20T18:52:02;14.57;;;9.23;;
64467;SDS011;50853;46.836;16.820;2022-11-20T18:54:28;15.00;;;9.05;;
64467;SDS011;50853;46.836;16.820;2022-11-20T18:56:54;13.52;;;7.97;;
64467;SDS011;50853;46.836;16.820;2022-11-20T18:59:20;14.43;;;8.40;;
64467;SDS011;50853;46.836;16.820;2022-11-20T19:01:46;17.05;;;8.20;;
64467;SDS011;50853;46.836;16.820;2022-11-20T19:04:14;12.50;;;8.15;;
64467;SDS011;50853;46.836;16.820;2022-11-20T19:06:41;11.45;;;8.02;;
64467;SDS011;50853;46.836;16.820;2022-11-20T19:09:09;10.75;;;7.30;;
64467;SDS011;50853;46.836;16.820;2022-11-20T19:11:37;13.10;;;7.70;;
64467;SDS011;50853;46.836;16.820;2022-11-20T19:14:03;10.48;;;8.07;;
64467;SDS011;50853;46.836;16.820;2022-11-20T19:16:29;12.55;;;8.05;;
64467;SDS011;50853;46.836;16.820;2022-11-20T19:18:58;12.00;;;7.75;;
64467;SDS011;50853;46.836;16.820;2022-11-20T19:21:27;14.35;;;8.07;;
64467;SDS011;50853;46.836;16.820;2022-11-20T19:23:54;13.13;;;8.00;;
64467;SDS011;50853;46.836;16.820;2022-11-20T19:26:22;11.35;;;7.80;;
64467;SDS011;50853;46.836;16.820;2022-11-20T19:28:48;13.13;;;7.88;;
64467;SDS011;50853;46.836;16.820;2022-11-20T19:31:18;12.98;;;7.18;;
64467;SDS011;50853;46.836;16.820;2022-11-20T19:33:58;12.57;;;7.55;;
64467;SDS011;50853;46.836;16.820;2022-11-20T19:36:28;10.98;;;7.18;;
64467;SDS011;50853;46.836;16.820;2022-11-20T19:38:55;12.45;;;6.85;;
64467;SDS011;50853;46.836;16.820;2022-11-20T19:41:22;9.48;;;6.88;;
64467;SDS011;50853;46.836;16.820;2022-11-20T19:44:02;11.43;;;7.07;;
64467;SDS011;50853;46.836;16.820;2022-11-20T19:46:30;11.23;;;7.00;;
64467;SDS011;50853;46.836;16.820;2022-11-20T19:48:58;10.00;;;6.80;;
64467;SDS011;50853;46.836;16.820;2022-11-20T19:51:25;11.32;;;6.55;;
64467;SDS011;50853;46.836;16.820;2022-11-20T19:53:53;10.02;;;6.57;;
64467;SDS011;50853;46.836;16.820;2022-11-20T19:56:20;8.50;;;6.25;;
64467;SDS011;50853;46.836;16.820;2022-11-20T19:58:46;12.35;;;7.45;;
64467;SDS011;50853;46.836;16.820;2022-11-20T20:01:16;10.00;;;6.67;;
64467;SDS011;50853;46.836;16.820;2022-11-20T20:03:43;9.00;;;6.55;;
64467;SDS011;50853;46.836;16.820;2022-11-20T20:06:12;11.73;;;6.97;;
64467;SDS011;50853;46.836;16.820;2022-11-20T20:08:40;8.90;;;6.53;;
64467;SDS011;50853;46.836;16.820;2022-11-20T20:11:13;8.48;;;6.15;;
64467;SDS011;50853;46.836;16.820;2022-11-20T20:13:44;9.98;;;5.97;;
64467;SDS011;50853;46.836;16.820;2022-11-20T20:16:14;8.75;;;6.60;;
64467;SDS011;50853;46.836;16.820;2022-11-20T20:18:42;11.50;;;8.18;;
64467;SDS011;50853;46.836;16.820;2022-11-20T20:21:09;11.43;;;7.75;;
64467;SDS011;50853;46.836;16.820;2022-11-20T20:23:36;11.80;;;8.07;;
64467;SDS011;50853;46.836;16.820;2022-11-20T20:26:03;11.80;;;9.27;;
64467;SDS011;50853;46.836;16.820;2022-11-20T20:28:30;13.23;;;8.48;;
64467;SDS011;50853;46.836;16.820;2022-11-20T20:30:56;12.17;;;9.77;;
64467;SDS011;50853;46.836;16.820;2022-11-20T20:33:22;12.43;;;9.50;;
64467;SDS011;50853;46.836;16.820;2022-11-20T20:35:48;14.30;;;9.63;;
64467;SDS011;50853;46.836;16.820;2022-11-20T20:38:14;14.02;;;9.75;;
64467;SDS011;50853;46.836;16.820;2022-11-20T20:40:46;13.57;;;10.30;;
64467;SDS011;50853;46.836;16.820;2022-11-20T20:43:13;11.52;;;8.60;;
64467;SDS011;50853;46.836;16.820;2022-11-20T20:45:43;12.02;;;8.55;;
64467;SDS011;50853;46.836;16.820;2022-11-20T20:48:14;9.93;;;8.07;;
64467;SDS011;50853;46.836;16.820;2022-11-20T20:50:41;9.98;;;7.55;;
64467;SDS011;50853;46.836;16.820;2022-11-20T20:53:16;9.43;;;7.45;;
64467;SDS011;50853;46.836;16.820;2022-11-20T20:55:51;8.30;;;6.43;;
64467;SDS011;50853;46.836;16.820;2022-11-20T20:58:21;9.38;;;6.72;;
64467;SDS011;50853;46.836;16.820;2022-11-20T21:00:47;7.90;;;6.18;;
